Hlavní strana
METAR-TAF:

METAR-TAF

Letiště :

Belize City, Belize

Phillip Goldston

zeměpisná šířka: 17-32N, zeměpisná délka: 088-18W, výška: 5 m

Aktuální stav počasí

Zpráva byla vytvořena před 29 minutami, v 13:00 UTC
Východní vítr 6 kt
Teplota 28°C
Vlhkost vzduchu 79%
Tlak 1014 hPa
Viditelnost 10 km a více
Skoro jasno ve výšce 1900 ft

METAR: MZBZ 231300Z 10006KT 9999 FEW019 28/24 A2996 Q1014 NOSIG

Čas: 07:29 (13:29 UTC)

Předpověď počasí

Zpráva byla vytvořena před 2 hodinami a 29 minutami, v 11:00 UTC
Předpověď platná od 23 v 12 UTC do 24 v 12 UTC
Východní vítr 7 kt
Viditelnost 10 km a více
Polojasno ve výšce 2400 ft

TAF: MZBZ 231100Z 2312/2412 09007KT 9999 SCT024

Stav a předpovědi počasí z více než 4 000 letišť (zprávy METAR a TAF).

Červené a žluté tečky na mapě představují dostupné meteorologické stanice.

Když kurzor umístíte na tečku, zobrazí se název stanice.

Pak kliknutím zobrazíte stav a předpověď počasí.

Chcete-li změnit mapu, kliknutím na zelené tlačítko se znaménkem +mapu přiblížíte, kliknutím na zelené tlačítko se znaménkem – mapu oddálíte a kliknutím na zelené šipky přejdete na sousední mapy.


METAR-TAF: